sensor_id;sensor_type;location;lat;lon;timestamp;P1;durP1;ratioP1;P2;durP2;ratioP2
37445;SDS011;23307;51.136;14.942;2023-11-19T00:00:26;5.97;;;4.90;;
37445;SDS011;23307;51.136;14.942;2023-11-19T00:02:51;8.20;;;4.60;;
37445;SDS011;23307;51.136;14.942;2023-11-19T00:05:17;5.33;;;4.40;;
37445;SDS011;23307;51.136;14.942;2023-11-19T00:07:43;8.87;;;4.43;;
37445;SDS011;23307;51.136;14.942;2023-11-19T00:10:13;7.33;;;4.43;;
37445;SDS011;23307;51.136;14.942;2023-11-19T00:12:44;5.47;;;4.50;;
37445;SDS011;23307;51.136;14.942;2023-11-19T00:15:11;6.27;;;4.13;;
37445;SDS011;23307;51.136;14.942;2023-11-19T00:17:41;6.57;;;4.80;;
37445;SDS011;23307;51.136;14.942;2023-11-19T00:20:11;5.30;;;4.37;;
37445;SDS011;23307;51.136;14.942;2023-11-19T00:22:37;5.67;;;4.63;;
37445;SDS011;23307;51.136;14.942;2023-11-19T00:25:03;5.10;;;4.20;;
37445;SDS011;23307;51.136;14.942;2023-11-19T00:27:30;6.47;;;4.17;;
37445;SDS011;23307;51.136;14.942;2023-11-19T00:29:56;4.80;;;4.20;;
37445;SDS011;23307;51.136;14.942;2023-11-19T00:32:21;6.57;;;3.77;;
37445;SDS011;23307;51.136;14.942;2023-11-19T00:34:47;6.50;;;4.07;;
37445;SDS011;23307;51.136;14.942;2023-11-19T00:37:13;4.63;;;3.90;;
37445;SDS011;23307;51.136;14.942;2023-11-19T00:39:40;6.80;;;5.00;;
37445;SDS011;23307;51.136;14.942;2023-11-19T00:42:06;6.87;;;4.53;;
37445;SDS011;23307;51.136;14.942;2023-11-19T00:44:32;4.23;;;3.60;;
37445;SDS011;23307;51.136;14.942;2023-11-19T00:46:57;6.63;;;4.10;;
37445;SDS011;23307;51.136;14.942;2023-11-19T00:49:24;4.03;;;3.63;;
37445;SDS011;23307;51.136;14.942;2023-11-19T00:51:50;6.53;;;4.23;;
37445;SDS011;23307;51.136;14.942;2023-11-19T00:54:15;4.90;;;4.33;;
37445;SDS011;23307;51.136;14.942;2023-11-19T00:56:41;5.97;;;4.10;;
37445;SDS011;23307;51.136;14.942;2023-11-19T00:59:06;5.83;;;4.10;;
37445;SDS011;23307;51.136;14.942;2023-11-19T01:01:32;9.17;;;4.27;;
37445;SDS011;23307;51.136;14.942;2023-11-19T01:03:58;5.10;;;4.17;;
37445;SDS011;23307;51.136;14.942;2023-11-19T01:06:30;5.97;;;4.10;;
37445;SDS011;23307;51.136;14.942;2023-11-19T01:08:56;5.13;;;4.33;;
37445;SDS011;23307;51.136;14.942;2023-11-19T01:11:22;6.43;;;4.43;;
37445;SDS011;23307;51.136;14.942;2023-11-19T01:13:48;4.57;;;3.80;;
37445;SDS011;23307;51.136;14.942;2023-11-19T01:16:14;5.00;;;4.20;;
37445;SDS011;23307;51.136;14.942;2023-11-19T01:18:39;4.60;;;4.10;;
37445;SDS011;23307;51.136;14.942;2023-11-19T01:21:05;5.10;;;4.53;;
37445;SDS011;23307;51.136;14.942;2023-11-19T01:23:30;6.10;;;4.90;;
37445;SDS011;23307;51.136;14.942;2023-11-19T01:25:57;5.77;;;4.90;;
37445;SDS011;23307;51.136;14.942;2023-11-19T01:28:23;6.77;;;5.40;;
37445;SDS011;23307;51.136;14.942;2023-11-19T01:30:50;7.03;;;5.30;;
37445;SDS011;23307;51.136;14.942;2023-11-19T01:33:16;5.50;;;4.67;;
37445;SDS011;23307;51.136;14.942;2023-11-19T01:35:42;5.53;;;5.03;;
37445;SDS011;23307;51.136;14.942;2023-11-19T01:38:07;6.10;;;5.37;;
37445;SDS011;23307;51.136;14.942;2023-11-19T01:40:36;6.63;;;5.20;;
37445;SDS011;23307;51.136;14.942;2023-11-19T01:43:02;5.77;;;5.17;;
37445;SDS011;23307;51.136;14.942;2023-11-19T01:45:29;8.13;;;5.67;;
37445;SDS011;23307;51.136;14.942;2023-11-19T01:47:59;7.47;;;5.70;;
37445;SDS011;23307;51.136;14.942;2023-11-19T01:50:28;7.13;;;5.50;;
37445;SDS011;23307;51.136;14.942;2023-11-19T01:52:55;7.37;;;5.93;;
37445;SDS011;23307;51.136;14.942;2023-11-19T01:55:22;8.43;;;6.30;;
37445;SDS011;23307;51.136;14.942;2023-11-19T01:57:50;7.10;;;6.00;;
37445;SDS011;23307;51.136;14.942;2023-11-19T02:00:17;8.20;;;6.10;;
37445;SDS011;23307;51.136;14.942;2023-11-19T02:02:44;8.27;;;6.23;;
37445;SDS011;23307;51.136;14.942;2023-11-19T02:05:11;7.57;;;6.80;;
37445;SDS011;23307;51.136;14.942;2023-11-19T02:07:38;7.50;;;6.70;;
37445;SDS011;23307;51.136;14.942;2023-11-19T02:10:04;7.40;;;6.50;;
37445;SDS011;23307;51.136;14.942;2023-11-19T02:12:30;8.90;;;7.17;;
37445;SDS011;23307;51.136;14.942;2023-11-19T02:14:58;8.00;;;6.50;;
37445;SDS011;23307;51.136;14.942;2023-11-19T02:17:28;8.53;;;7.27;;
37445;SDS011;23307;51.136;14.942;2023-11-19T02:19:56;17.73;;;6.93;;
37445;SDS011;23307;51.136;14.942;2023-11-19T02:22:22;8.43;;;7.27;;
37445;SDS011;23307;51.136;14.942;2023-11-19T02:24:47;7.80;;;7.00;;
37445;SDS011;23307;51.136;14.942;2023-11-19T02:27:59;9.30;;;7.50;;
37445;SDS011;23307;51.136;14.942;2023-11-19T02:30:20;7.57;;;6.77;;
37445;SDS011;23307;51.136;14.942;2023-11-19T02:32:46;8.17;;;7.37;;
37445;SDS011;23307;51.136;14.942;2023-11-19T02:35:13;9.87;;;7.60;;
37445;SDS011;23307;51.136;14.942;2023-11-19T02:37:38;7.90;;;7.10;;
37445;SDS011;23307;51.136;14.942;2023-11-19T02:40:04;8.47;;;7.57;;
37445;SDS011;23307;51.136;14.942;2023-11-19T02:42:33;8.40;;;7.50;;
37445;SDS011;23307;51.136;14.942;2023-11-19T02:44:59;8.33;;;7.53;;
37445;SDS011;23307;51.136;14.942;2023-11-19T02:47:24;8.80;;;7.50;;
37445;SDS011;23307;51.136;14.942;2023-11-19T02:49:50;8.77;;;7.77;;
37445;SDS011;23307;51.136;14.942;2023-11-19T02:52:18;8.90;;;7.90;;
37445;SDS011;23307;51.136;14.942;2023-11-19T02:54:43;10.30;;;8.53;;
37445;SDS011;23307;51.136;14.942;2023-11-19T02:57:10;9.40;;;8.40;;
37445;SDS011;23307;51.136;14.942;2023-11-19T02:59:38;9.53;;;7.93;;
37445;SDS011;23307;51.136;14.942;2023-11-19T03:02:06;9.50;;;7.13;;
37445;SDS011;23307;51.136;14.942;2023-11-19T03:04:35;9.37;;;7.80;;
37445;SDS011;23307;51.136;14.942;2023-11-19T03:07:00;8.40;;;7.50;;
37445;SDS011;23307;51.136;14.942;2023-11-19T03:09:26;9.40;;;8.27;;
37445;SDS011;23307;51.136;14.942;2023-11-19T03:11:54;8.97;;;7.90;;
37445;SDS011;23307;51.136;14.942;2023-11-19T03:14:19;7.90;;;7.10;;
37445;SDS011;23307;51.136;14.942;2023-11-19T03:16:45;8.23;;;7.40;;
37445;SDS011;23307;51.136;14.942;2023-11-19T03:19:14;9.57;;;7.27;;
37445;SDS011;23307;51.136;14.942;2023-11-19T03:21:40;10.17;;;7.13;;
37445;SDS011;23307;51.136;14.942;2023-11-19T03:24:05;7.63;;;6.90;;
37445;SDS011;23307;51.136;14.942;2023-11-19T03:26:31;9.47;;;7.17;;
37445;SDS011;23307;51.136;14.942;2023-11-19T03:28:58;8.93;;;6.93;;
37445;SDS011;23307;51.136;14.942;2023-11-19T03:31:24;7.17;;;6.30;;
37445;SDS011;23307;51.136;14.942;2023-11-19T03:33:50;8.10;;;7.27;;
37445;SDS011;23307;51.136;14.942;2023-11-19T03:36:15;7.50;;;6.73;;
37445;SDS011;23307;51.136;14.942;2023-11-19T03:38:41;7.37;;;6.40;;
37445;SDS011;23307;51.136;14.942;2023-11-19T03:41:13;8.33;;;6.90;;
37445;SDS011;23307;51.136;14.942;2023-11-19T03:43:39;7.13;;;6.33;;
37445;SDS011;23307;51.136;14.942;2023-11-19T03:46:21;6.70;;;6.00;;
37445;SDS011;23307;51.136;14.942;2023-11-19T03:48:48;7.33;;;6.20;;
37445;SDS011;23307;51.136;14.942;2023-11-19T03:51:14;7.57;;;5.87;;
37445;SDS011;23307;51.136;14.942;2023-11-19T03:53:43;8.10;;;6.23;;
37445;SDS011;23307;51.136;14.942;2023-11-19T03:56:12;7.43;;;5.80;;
37445;SDS011;23307;51.136;14.942;2023-11-19T03:58:38;7.07;;;5.67;;
37445;SDS011;23307;51.136;14.942;2023-11-19T04:01:04;6.43;;;5.67;;
37445;SDS011;23307;51.136;14.942;2023-11-19T04:03:30;7.00;;;5.17;;
37445;SDS011;23307;51.136;14.942;2023-11-19T04:05:56;7.27;;;6.33;;
37445;SDS011;23307;51.136;14.942;2023-11-19T04:08:22;6.00;;;5.40;;
37445;SDS011;23307;51.136;14.942;2023-11-19T04:10:47;6.37;;;5.40;;
37445;SDS011;23307;51.136;14.942;2023-11-19T04:13:13;7.10;;;5.93;;
37445;SDS011;23307;51.136;14.942;2023-11-19T04:15:39;6.67;;;5.77;;
37445;SDS011;23307;51.136;14.942;2023-11-19T04:18:04;6.53;;;5.83;;
37445;SDS011;23307;51.136;14.942;2023-11-19T04:20:30;7.73;;;6.40;;
37445;SDS011;23307;51.136;14.942;2023-11-19T04:22:56;7.13;;;5.87;;
37445;SDS011;23307;51.136;14.942;2023-11-19T04:25:22;6.07;;;5.43;;
37445;SDS011;23307;51.136;14.942;2023-11-19T04:27:47;5.73;;;5.10;;
37445;SDS011;23307;51.136;14.942;2023-11-19T04:30:14;6.20;;;5.03;;
37445;SDS011;23307;51.136;14.942;2023-11-19T04:32:40;5.37;;;4.87;;
37445;SDS011;23307;51.136;14.942;2023-11-19T04:35:06;5.47;;;4.97;;
37445;SDS011;23307;51.136;14.942;2023-11-19T04:37:32;5.30;;;4.77;;
37445;SDS011;23307;51.136;14.942;2023-11-19T04:39:57;5.47;;;4.93;;
37445;SDS011;23307;51.136;14.942;2023-11-19T04:42:24;5.30;;;4.80;;
37445;SDS011;23307;51.136;14.942;2023-11-19T04:44:50;5.07;;;4.57;;
37445;SDS011;23307;51.136;14.942;2023-11-19T04:47:16;5.73;;;5.10;;
37445;SDS011;23307;51.136;14.942;2023-11-19T04:49:41;5.00;;;4.50;;
37445;SDS011;23307;51.136;14.942;2023-11-19T04:52:08;4.97;;;4.50;;
37445;SDS011;23307;51.136;14.942;2023-11-19T04:54:33;5.17;;;4.67;;
37445;SDS011;23307;51.136;14.942;2023-11-19T04:56:59;4.63;;;4.13;;
37445;SDS011;23307;51.136;14.942;2023-11-19T04:59:24;6.10;;;5.20;;
37445;SDS011;23307;51.136;14.942;2023-11-19T05:01:50;7.43;;;4.87;;
37445;SDS011;23307;51.136;14.942;2023-11-19T05:04:16;5.20;;;4.63;;
37445;SDS011;23307;51.136;14.942;2023-11-19T05:06:43;5.60;;;5.00;;
37445;SDS011;23307;51.136;14.942;2023-11-19T05:09:09;5.40;;;4.90;;
37445;SDS011;23307;51.136;14.942;2023-11-19T05:11:37;5.47;;;4.80;;
37445;SDS011;23307;51.136;14.942;2023-11-19T05:14:04;4.90;;;4.40;;
37445;SDS011;23307;51.136;14.942;2023-11-19T05:16:30;6.27;;;4.57;;
37445;SDS011;23307;51.136;14.942;2023-11-19T05:18:55;6.50;;;4.73;;
37445;SDS011;23307;51.136;14.942;2023-11-19T05:21:21;6.10;;;4.90;;
37445;SDS011;23307;51.136;14.942;2023-11-19T05:23:47;5.23;;;4.70;;
37445;SDS011;23307;51.136;14.942;2023-11-19T05:26:22;5.33;;;4.83;;
37445;SDS011;23307;51.136;14.942;2023-11-19T05:28:48;5.73;;;5.13;;
37445;SDS011;23307;51.136;14.942;2023-11-19T05:31:15;5.43;;;4.70;;
37445;SDS011;23307;51.136;14.942;2023-11-19T05:33:42;4.87;;;4.40;;
37445;SDS011;23307;51.136;14.942;2023-11-19T05:36:08;5.43;;;4.93;;
37445;SDS011;23307;51.136;14.942;2023-11-19T05:38:34;6.27;;;4.93;;
37445;SDS011;23307;51.136;14.942;2023-11-19T05:41:00;6.43;;;4.80;;
37445;SDS011;23307;51.136;14.942;2023-11-19T05:43:26;8.63;;;4.97;;
37445;SDS011;23307;51.136;14.942;2023-11-19T05:45:51;6.97;;;4.70;;
37445;SDS011;23307;51.136;14.942;2023-11-19T05:48:17;5.43;;;4.83;;
37445;SDS011;23307;51.136;14.942;2023-11-19T05:50:42;6.20;;;5.17;;
37445;SDS011;23307;51.136;14.942;2023-11-19T05:53:08;5.87;;;5.00;;
37445;SDS011;23307;51.136;14.942;2023-11-19T05:55:35;7.63;;;5.50;;
37445;SDS011;23307;51.136;14.942;2023-11-19T05:58:10;6.57;;;4.73;;
37445;SDS011;23307;51.136;14.942;2023-11-19T06:00:37;5.83;;;4.77;;
37445;SDS011;23307;51.136;14.942;2023-11-19T06:03:03;5.03;;;4.53;;
37445;SDS011;23307;51.136;14.942;2023-11-19T06:05:29;5.23;;;4.73;;
37445;SDS011;23307;51.136;14.942;2023-11-19T06:07:54;5.13;;;4.53;;
37445;SDS011;23307;51.136;14.942;2023-11-19T06:10:20;4.90;;;4.40;;
37445;SDS011;23307;51.136;14.942;2023-11-19T06:12:46;5.30;;;4.17;;
37445;SDS011;23307;51.136;14.942;2023-11-19T06:15:12;4.70;;;4.30;;
37445;SDS011;23307;51.136;14.942;2023-11-19T06:17:38;5.10;;;4.60;;
37445;SDS011;23307;51.136;14.942;2023-11-19T06:20:04;6.90;;;4.23;;
37445;SDS011;23307;51.136;14.942;2023-11-19T06:22:30;5.20;;;4.70;;
37445;SDS011;23307;51.136;14.942;2023-11-19T06:24:56;4.60;;;3.97;;
37445;SDS011;23307;51.136;14.942;2023-11-19T06:27:21;4.90;;;3.73;;
37445;SDS011;23307;51.136;14.942;2023-11-19T06:29:47;5.77;;;3.70;;
37445;SDS011;23307;51.136;14.942;2023-11-19T06:32:12;5.07;;;3.80;;
37445;SDS011;23307;51.136;14.942;2023-11-19T06:34:38;4.23;;;3.83;;
37445;SDS011;23307;51.136;14.942;2023-11-19T06:37:03;4.97;;;3.60;;
37445;SDS011;23307;51.136;14.942;2023-11-19T06:39:29;4.70;;;3.53;;
37445;SDS011;23307;51.136;14.942;2023-11-19T06:41:55;4.00;;;3.33;;
37445;SDS011;23307;51.136;14.942;2023-11-19T06:44:21;3.73;;;3.40;;
37445;SDS011;23307;51.136;14.942;2023-11-19T06:46:48;4.10;;;3.63;;
37445;SDS011;23307;51.136;14.942;2023-11-19T06:49:13;3.53;;;3.23;;
37445;SDS011;23307;51.136;14.942;2023-11-19T06:51:42;3.50;;;3.20;;
37445;SDS011;23307;51.136;14.942;2023-11-19T06:54:08;4.63;;;3.30;;
37445;SDS011;23307;51.136;14.942;2023-11-19T06:56:34;3.40;;;3.10;;
37445;SDS011;23307;51.136;14.942;2023-11-19T06:58:59;3.77;;;3.47;;
37445;SDS011;23307;51.136;14.942;2023-11-19T07:01:25;3.60;;;3.30;;
37445;SDS011;23307;51.136;14.942;2023-11-19T07:03:51;3.17;;;2.80;;
37445;SDS011;23307;51.136;14.942;2023-11-19T07:06:17;3.23;;;2.93;;
37445;SDS011;23307;51.136;14.942;2023-11-19T07:08:43;3.17;;;2.90;;
37445;SDS011;23307;51.136;14.942;2023-11-19T07:11:12;3.53;;;3.00;;
37445;SDS011;23307;51.136;14.942;2023-11-19T07:13:40;3.43;;;3.13;;
37445;SDS011;23307;51.136;14.942;2023-11-19T07:16:06;3.20;;;2.90;;
37445;SDS011;23307;51.136;14.942;2023-11-19T07:18:34;3.33;;;3.03;;
37445;SDS011;23307;51.136;14.942;2023-11-19T07:21:00;3.67;;;3.13;;
37445;SDS011;23307;51.136;14.942;2023-11-19T07:23:28;3.30;;;3.00;;
37445;SDS011;23307;51.136;14.942;2023-11-19T07:25:53;5.73;;;5.20;;
37445;SDS011;23307;51.136;14.942;2023-11-19T07:28:19;5.00;;;4.50;;
37445;SDS011;23307;51.136;14.942;2023-11-19T07:30:44;4.60;;;4.20;;
37445;SDS011;23307;51.136;14.942;2023-11-19T07:33:10;3.33;;;3.07;;
37445;SDS011;23307;51.136;14.942;2023-11-19T07:35:35;2.87;;;2.50;;
37445;SDS011;23307;51.136;14.942;2023-11-19T07:38:01;4.40;;;4.00;;
37445;SDS011;23307;51.136;14.942;2023-11-19T07:40:27;5.83;;;4.43;;
37445;SDS011;23307;51.136;14.942;2023-11-19T07:42:52;9.57;;;7.87;;
37445;SDS011;23307;51.136;14.942;2023-11-19T07:45:18;11.43;;;8.97;;
37445;SDS011;23307;51.136;14.942;2023-11-19T07:47:44;17.53;;;15.73;;
37445;SDS011;23307;51.136;14.942;2023-11-19T07:50:10;14.97;;;13.47;;
37445;SDS011;23307;51.136;14.942;2023-11-19T07:52:35;13.63;;;12.23;;
37445;SDS011;23307;51.136;14.942;2023-11-19T07:55:02;7.20;;;6.50;;
37445;SDS011;23307;51.136;14.942;2023-11-19T07:57:27;3.57;;;3.10;;
37445;SDS011;23307;51.136;14.942;2023-11-19T07:59:55;4.27;;;3.87;;
37445;SDS011;23307;51.136;14.942;2023-11-19T08:02:21;3.47;;;3.17;;
37445;SDS011;23307;51.136;14.942;2023-11-19T08:04:48;2.03;;;1.90;;
37445;SDS011;23307;51.136;14.942;2023-11-19T08:07:16;2.30;;;1.97;;
37445;SDS011;23307;51.136;14.942;2023-11-19T08:09:45;2.10;;;1.90;;
37445;SDS011;23307;51.136;14.942;2023-11-19T08:12:11;2.53;;;2.30;;
37445;SDS011;23307;51.136;14.942;2023-11-19T08:14:39;3.37;;;2.40;;
37445;SDS011;23307;51.136;14.942;2023-11-19T08:17:04;2.57;;;2.30;;
37445;SDS011;23307;51.136;14.942;2023-11-19T08:19:30;2.03;;;1.77;;
37445;SDS011;23307;51.136;14.942;2023-11-19T08:21:56;2.27;;;2.07;;
37445;SDS011;23307;51.136;14.942;2023-11-19T08:24:21;1.97;;;1.70;;
37445;SDS011;23307;51.136;14.942;2023-11-19T08:26:47;3.57;;;3.20;;
37445;SDS011;23307;51.136;14.942;2023-11-19T08:29:13;3.60;;;3.30;;
37445;SDS011;23307;51.136;14.942;2023-11-19T08:31:39;2.47;;;2.27;;
37445;SDS011;23307;51.136;14.942;2023-11-19T08:34:04;3.00;;;2.70;;
37445;SDS011;23307;51.136;14.942;2023-11-19T08:36:33;2.40;;;2.20;;
37445;SDS011;23307;51.136;14.942;2023-11-19T08:38:59;1.60;;;1.50;;
37445;SDS011;23307;51.136;14.942;2023-11-19T08:41:25;3.43;;;2.20;;
37445;SDS011;23307;51.136;14.942;2023-11-19T08:43:50;4.00;;;2.00;;
37445;SDS011;23307;51.136;14.942;2023-11-19T08:46:16;1.83;;;1.73;;
37445;SDS011;23307;51.136;14.942;2023-11-19T08:48:42;2.30;;;2.10;;
37445;SDS011;23307;51.136;14.942;2023-11-19T08:51:07;2.23;;;2.03;;
37445;SDS011;23307;51.136;14.942;2023-11-19T08:53:33;2.00;;;1.87;;
37445;SDS011;23307;51.136;14.942;2023-11-19T08:55:59;1.80;;;1.70;;
37445;SDS011;23307;51.136;14.942;2023-11-19T08:58:25;1.70;;;1.60;;
37445;SDS011;23307;51.136;14.942;2023-11-19T09:00:51;2.10;;;1.67;;
37445;SDS011;23307;51.136;14.942;2023-11-19T09:03:16;1.80;;;1.70;;
37445;SDS011;23307;51.136;14.942;2023-11-19T09:05:42;1.97;;;1.77;;
37445;SDS011;23307;51.136;14.942;2023-11-19T09:08:07;2.53;;;2.07;;
37445;SDS011;23307;51.136;14.942;2023-11-19T09:10:33;2.07;;;1.80;;
37445;SDS011;23307;51.136;14.942;2023-11-19T09:12:59;2.20;;;2.00;;
37445;SDS011;23307;51.136;14.942;2023-11-19T09:15:24;2.30;;;2.10;;
37445;SDS011;23307;51.136;14.942;2023-11-19T09:17:50;2.13;;;1.97;;
37445;SDS011;23307;51.136;14.942;2023-11-19T09:20:15;1.87;;;1.77;;
37445;SDS011;23307;51.136;14.942;2023-11-19T09:22:41;2.30;;;2.10;;
37445;SDS011;23307;51.136;14.942;2023-11-19T09:25:07;2.57;;;2.37;;
37445;SDS011;23307;51.136;14.942;2023-11-19T09:27:33;2.87;;;2.50;;
37445;SDS011;23307;51.136;14.942;2023-11-19T09:29:58;2.10;;;1.90;;
37445;SDS011;23307;51.136;14.942;2023-11-19T09:32:24;2.60;;;2.27;;
37445;SDS011;23307;51.136;14.942;2023-11-19T09:34:50;2.63;;;1.90;;
37445;SDS011;23307;51.136;14.942;2023-11-19T09:37:16;2.30;;;2.10;;
37445;SDS011;23307;51.136;14.942;2023-11-19T09:39:41;2.67;;;2.30;;
37445;SDS011;23307;51.136;14.942;2023-11-19T09:42:11;2.37;;;2.17;;
37445;SDS011;23307;51.136;14.942;2023-11-19T09:44:37;1.90;;;1.80;;
37445;SDS011;23307;51.136;14.942;2023-11-19T09:47:04;2.47;;;2.27;;
37445;SDS011;23307;51.136;14.942;2023-11-19T09:49:31;1.80;;;1.70;;
37445;SDS011;23307;51.136;14.942;2023-11-19T09:51:57;2.13;;;1.80;;
37445;SDS011;23307;51.136;14.942;2023-11-19T09:54:23;1.93;;;1.83;;
37445;SDS011;23307;51.136;14.942;2023-11-19T09:56:48;2.00;;;1.80;;
37445;SDS011;23307;51.136;14.942;2023-11-19T09:59:15;2.10;;;1.90;;
37445;SDS011;23307;51.136;14.942;2023-11-19T10:01:41;2.00;;;1.90;;
37445;SDS011;23307;51.136;14.942;2023-11-19T10:04:07;2.30;;;1.83;;
37445;SDS011;23307;51.136;14.942;2023-11-19T10:06:34;1.70;;;1.60;;
37445;SDS011;23307;51.136;14.942;2023-11-19T10:09:00;1.70;;;1.60;;
37445;SDS011;23307;51.136;14.942;2023-11-19T10:11:26;2.00;;;1.80;;
37445;SDS011;23307;51.136;14.942;2023-11-19T10:13:53;2.00;;;1.80;;
37445;SDS011;23307;51.136;14.942;2023-11-19T10:16:19;1.57;;;1.47;;
37445;SDS011;23307;51.136;14.942;2023-11-19T10:18:45;1.40;;;1.30;;
37445;SDS011;23307;51.136;14.942;2023-11-19T10:21:14;2.10;;;1.90;;
37445;SDS011;23307;51.136;14.942;2023-11-19T10:23:55;1.87;;;1.50;;
37445;SDS011;23307;51.136;14.942;2023-11-19T10:26:23;1.60;;;1.50;;
37445;SDS011;23307;51.136;14.942;2023-11-19T10:28:49;2.13;;;1.93;;
37445;SDS011;23307;51.136;14.942;2023-11-19T10:31:15;1.90;;;1.70;;
37445;SDS011;23307;51.136;14.942;2023-11-19T10:33:43;1.90;;;1.80;;
37445;SDS011;23307;51.136;14.942;2023-11-19T10:36:10;2.00;;;1.80;;
37445;SDS011;23307;51.136;14.942;2023-11-19T10:38:39;1.70;;;1.60;;
37445;SDS011;23307;51.136;14.942;2023-11-19T10:41:05;1.67;;;1.57;;
37445;SDS011;23307;51.136;14.942;2023-11-19T10:43:31;1.73;;;1.63;;
37445;SDS011;23307;51.136;14.942;2023-11-19T10:46:10;2.17;;;2.03;;
37445;SDS011;23307;51.136;14.942;2023-11-19T10:48:36;2.90;;;1.90;;
37445;SDS011;23307;51.136;14.942;2023-11-19T10:51:02;1.63;;;1.53;;
37445;SDS011;23307;51.136;14.942;2023-11-19T10:53:33;1.80;;;1.70;;
37445;SDS011;23307;51.136;14.942;2023-11-19T10:56:01;2.13;;;1.97;;
37445;SDS011;23307;51.136;14.942;2023-11-19T10:58:29;2.30;;;1.93;;
37445;SDS011;23307;51.136;14.942;2023-11-19T11:00:57;2.73;;;2.07;;
37445;SDS011;23307;51.136;14.942;2023-11-19T11:03:31;1.70;;;1.60;;
37445;SDS011;23307;51.136;14.942;2023-11-19T11:06:04;2.03;;;1.83;;
37445;SDS011;23307;51.136;14.942;2023-11-19T11:08:30;2.73;;;2.10;;
37445;SDS011;23307;51.136;14.942;2023-11-19T11:10:56;1.90;;;1.70;;
37445;SDS011;23307;51.136;14.942;2023-11-19T11:13:25;1.63;;;1.53;;
37445;SDS011;23307;51.136;14.942;2023-11-19T11:15:54;1.97;;;1.70;;
37445;SDS011;23307;51.136;14.942;2023-11-19T11:18:23;1.88;;;1.67;;
37445;SDS011;23307;51.136;14.942;2023-11-19T11:20:50;1.52;;;1.42;;
37445;SDS011;23307;51.136;14.942;2023-11-19T11:29:05;2.45;;;1.50;;
37445;SDS011;23307;51.136;14.942;2023-11-19T11:31:48;1.65;;;1.55;;
37445;SDS011;23307;51.136;14.942;2023-11-19T11:37:18;1.75;;;1.55;;
37445;SDS011;23307;51.136;14.942;2023-11-19T11:39:52;1.67;;;1.40;;
37445;SDS011;23307;51.136;14.942;2023-11-19T11:45:07;5.40;;;2.33;;
37445;SDS011;23307;51.136;14.942;2023-11-19T11:55:27;3.15;;;1.67;;
37445;SDS011;23307;51.136;14.942;2023-11-19T11:57:54;2.65;;;2.05;;
37445;SDS011;23307;51.136;14.942;2023-11-19T12:00:27;3.28;;;1.80;;
37445;SDS011;23307;51.136;14.942;2023-11-19T12:03:00;2.33;;;1.70;;
37445;SDS011;23307;51.136;14.942;2023-11-19T12:05:26;4.30;;;1.48;;
37445;SDS011;23307;51.136;14.942;2023-11-19T12:07:55;3.22;;;2.00;;
37445;SDS011;23307;51.136;14.942;2023-11-19T12:10:25;2.97;;;1.63;;
37445;SDS011;23307;51.136;14.942;2023-11-19T12:12:56;2.60;;;2.33;;
37445;SDS011;23307;51.136;14.942;2023-11-19T12:15:23;2.42;;;2.22;;
37445;SDS011;23307;51.136;14.942;2023-11-19T12:17:51;4.95;;;3.00;;
37445;SDS011;23307;51.136;14.942;2023-11-19T12:20:18;3.92;;;2.80;;
37445;SDS011;23307;51.136;14.942;2023-11-19T12:22:46;4.05;;;2.38;;
37445;SDS011;23307;51.136;14.942;2023-11-19T12:25:14;4.07;;;3.13;;
37445;SDS011;23307;51.136;14.942;2023-11-19T12:27:42;5.40;;;3.08;;
37445;SDS011;23307;51.136;14.942;2023-11-19T12:30:20;5.88;;;3.40;;
37445;SDS011;23307;51.136;14.942;2023-11-19T12:32:49;5.50;;;4.05;;
37445;SDS011;23307;51.136;14.942;2023-11-19T12:35:14;3.95;;;2.15;;
37445;SDS011;23307;51.136;14.942;2023-11-19T12:37:44;4.28;;;2.33;;
37445;SDS011;23307;51.136;14.942;2023-11-19T12:42:42;7.18;;;5.30;;
37445;SDS011;23307;51.136;14.942;2023-11-19T12:45:08;4.00;;;2.20;;
37445;SDS011;23307;51.136;14.942;2023-11-19T12:47:35;3.83;;;2.45;;
37445;SDS011;23307;51.136;14.942;2023-11-19T12:50:02;3.70;;;2.15;;
37445;SDS011;23307;51.136;14.942;2023-11-19T12:52:28;3.90;;;2.60;;
37445;SDS011;23307;51.136;14.942;2023-11-19T12:54:54;2.60;;;2.22;;
37445;SDS011;23307;51.136;14.942;2023-11-19T12:57:20;5.47;;;3.92;;
37445;SDS011;23307;51.136;14.942;2023-11-19T12:59:55;3.65;;;3.13;;
37445;SDS011;23307;51.136;14.942;2023-11-19T13:02:21;4.40;;;2.88;;
37445;SDS011;23307;51.136;14.942;2023-11-19T13:04:48;7.15;;;4.72;;
37445;SDS011;23307;51.136;14.942;2023-11-19T13:07:15;5.50;;;2.88;;
37445;SDS011;23307;51.136;14.942;2023-11-19T13:09:46;4.68;;;2.22;;
37445;SDS011;23307;51.136;14.942;2023-11-19T13:12:12;5.75;;;2.70;;
37445;SDS011;23307;51.136;14.942;2023-11-19T13:14:39;7.40;;;2.40;;
37445;SDS011;23307;51.136;14.942;2023-11-19T13:17:07;6.03;;;2.13;;
37445;SDS011;23307;51.136;14.942;2023-11-19T13:19:33;6.05;;;2.22;;
37445;SDS011;23307;51.136;14.942;2023-11-19T13:21:58;9.88;;;2.20;;
37445;SDS011;23307;51.136;14.942;2023-11-19T13:24:24;8.35;;;2.20;;
37445;SDS011;23307;51.136;14.942;2023-11-19T13:26:49;9.13;;;2.10;;
37445;SDS011;23307;51.136;14.942;2023-11-19T13:29:15;7.32;;;2.20;;
37445;SDS011;23307;51.136;14.942;2023-11-19T13:31:40;9.00;;;2.15;;
37445;SDS011;23307;51.136;14.942;2023-11-19T13:34:06;10.25;;;2.03;;
37445;SDS011;23307;51.136;14.942;2023-11-19T13:36:33;5.65;;;2.20;;
37445;SDS011;23307;51.136;14.942;2023-11-19T13:38:59;6.55;;;2.10;;
37445;SDS011;23307;51.136;14.942;2023-11-19T13:41:25;7.50;;;2.03;;
37445;SDS011;23307;51.136;14.942;2023-11-19T13:43:51;7.05;;;2.70;;
37445;SDS011;23307;51.136;14.942;2023-11-19T13:46:16;5.18;;;1.92;;
37445;SDS011;23307;51.136;14.942;2023-11-19T13:48:42;4.97;;;2.13;;
37445;SDS011;23307;51.136;14.942;2023-11-19T13:51:07;4.55;;;2.13;;
37445;SDS011;23307;51.136;14.942;2023-11-19T13:53:34;7.35;;;1.60;;
37445;SDS011;23307;51.136;14.942;2023-11-19T13:56:00;5.43;;;1.63;;
37445;SDS011;23307;51.136;14.942;2023-11-19T13:58:26;6.10;;;1.90;;
37445;SDS011;23307;51.136;14.942;2023-11-19T14:00:51;4.65;;;1.73;;
37445;SDS011;23307;51.136;14.942;2023-11-19T14:03:17;4.93;;;1.85;;
37445;SDS011;23307;51.136;14.942;2023-11-19T14:05:43;6.35;;;1.90;;
37445;SDS011;23307;51.136;14.942;2023-11-19T14:08:08;3.85;;;1.73;;
37445;SDS011;23307;51.136;14.942;2023-11-19T14:10:37;7.25;;;2.15;;
37445;SDS011;23307;51.136;14.942;2023-11-19T14:13:05;6.18;;;2.20;;
37445;SDS011;23307;51.136;14.942;2023-11-19T14:15:31;4.70;;;2.47;;
37445;SDS011;23307;51.136;14.942;2023-11-19T14:17:56;5.07;;;2.47;;
37445;SDS011;23307;51.136;14.942;2023-11-19T14:20:22;11.05;;;3.15;;
37445;SDS011;23307;51.136;14.942;2023-11-19T14:22:47;6.13;;;2.65;;
37445;SDS011;23307;51.136;14.942;2023-11-19T14:25:14;4.60;;;2.72;;
37445;SDS011;23307;51.136;14.942;2023-11-19T14:27:40;4.63;;;2.13;;
37445;SDS011;23307;51.136;14.942;2023-11-19T14:30:07;5.40;;;3.05;;
37445;SDS011;23307;51.136;14.942;2023-11-19T14:32:37;5.00;;;2.90;;
37445;SDS011;23307;51.136;14.942;2023-11-19T14:35:04;5.47;;;3.35;;
37445;SDS011;23307;51.136;14.942;2023-11-19T14:37:30;5.78;;;3.80;;
37445;SDS011;23307;51.136;14.942;2023-11-19T14:39:56;8.38;;;3.47;;
37445;SDS011;23307;51.136;14.942;2023-11-19T14:42:25;7.43;;;4.55;;
37445;SDS011;23307;51.136;14.942;2023-11-19T14:44:54;5.43;;;3.15;;
37445;SDS011;23307;51.136;14.942;2023-11-19T14:47:23;5.72;;;4.38;;
37445;SDS011;23307;51.136;14.942;2023-11-19T14:49:49;5.38;;;3.67;;
37445;SDS011;23307;51.136;14.942;2023-11-19T14:52:15;6.90;;;5.00;;